Time;durP1;ratioP1;P1;durP2;ratioP2;P2;SDS_P1;SDS_P2;PMS_P1;PMS_P2;Temp;Humidity;BMP_temperature;BMP_pressure;BME280_temperature;BME280_humidity;BME280_pressure;Samples;Min_cycle;Max_cycle;Signal;HPM_P1;HPM_P2
2022/07/16 00:01:24;;;;;;;8.60;5.23;;;14.80;99.90;;;;;;5062370;28;20535;-65
2022/07/16 00:03:55;;;;;;;5.90;5.20;;;14.70;99.90;;;;;;5065972;28;20476;-64
2022/07/16 00:06:22;;;;;;;6.77;5.47;;;14.70;99.90;;;;;;5073724;28;20445;-65
2022/07/16 00:08:50;;;;;;;7.37;4.90;;;14.70;99.90;;;;;;5074572;28;20925;-65
2022/07/16 00:11:16;;;;;;;7.93;6.07;;;14.60;99.90;;;;;;5049976;28;20451;-65
2022/07/16 00:13:45;;;;;;;6.30;4.87;;;14.60;99.90;;;;;;5050766;28;20452;-65
2022/07/16 00:16:12;;;;;;;6.87;6.10;;;14.50;99.90;;;;;;5050821;28;20444;-65
2022/07/16 00:21:25;;;;;;;5.70;4.70;;;14.40;99.90;;;;;;5050082;28;20420;-65
2022/07/16 00:23:52;;;;;;;7.37;5.43;;;14.30;99.90;;;;;;5049592;28;20488;-65
2022/07/16 00:26:19;;;;;;;8.10;5.40;;;14.20;99.90;;;;;;5050296;28;20948;-65
2022/07/16 00:28:46;;;;;;;7.73;5.90;;;14.20;99.90;;;;;;5051558;28;20450;-65
2022/07/16 00:31:12;;;;;;;6.43;5.77;;;14.20;99.90;;;;;;5049664;28;20945;-65
2022/07/16 00:33:40;;;;;;;5.73;5.17;;;14.20;99.90;;;;;;5050470;28;20708;-66
2022/07/16 00:36:07;;;;;;;8.17;5.13;;;14.20;99.90;;;;;;5049677;28;21001;-65
2022/07/16 00:38:35;;;;;;;6.67;4.97;;;14.20;99.90;;;;;;5050577;28;20458;-65
2022/07/16 00:41:02;;;;;;;9.03;5.50;;;14.10;99.90;;;;;;5049560;28;20448;-65
2022/07/16 00:43:28;;;;;;;7.57;5.50;;;14.10;99.90;;;;;;5050275;28;20997;-65
2022/07/16 00:45:55;;;;;;;6.73;6.03;;;14.00;99.90;;;;;;5049936;28;20970;-65
2022/07/16 00:48:22;;;;;;;8.17;6.13;;;13.90;99.90;;;;;;5050219;28;20826;-66
2022/07/16 00:50:49;;;;;;;9.60;6.70;;;13.80;99.90;;;;;;5049227;28;20440;-65
2022/07/16 00:53:16;;;;;;;10.57;7.40;;;13.80;99.90;;;;;;5050064;28;20432;-65
2022/07/16 00:55:44;;;;;;;8.77;6.70;;;13.80;99.90;;;;;;5049983;28;20451;-65
2022/07/16 00:58:11;;;;;;;7.50;5.70;;;13.70;99.90;;;;;;5050002;28;20466;-65
2022/07/16 01:00:37;;;;;;;6.63;6.03;;;13.60;99.90;;;;;;5049387;28;20447;-64
2022/07/16 01:03:05;;;;;;;8.23;7.43;;;13.60;99.90;;;;;;5049584;28;20451;-65
2022/07/16 01:05:33;;;;;;;8.20;7.40;;;13.60;99.90;;;;;;5049069;28;20534;-65
2022/07/16 01:07:59;;;;;;;9.13;6.60;;;13.60;99.90;;;;;;5048513;28;20440;-65
2022/07/16 01:10:26;;;;;;;10.00;6.83;;;13.60;99.90;;;;;;5048789;28;20463;-65
2022/07/16 01:12:58;;;;;;;8.00;6.17;;;13.60;99.90;;;;;;5050045;28;20811;-65
2022/07/16 01:15:25;;;;;;;8.13;6.03;;;13.60;99.90;;;;;;5048951;28;20496;-65
2022/07/16 01:17:52;;;;;;;6.63;5.70;;;13.50;99.90;;;;;;5049308;28;20448;-65
2022/07/16 01:20:19;;;;;;;7.73;6.83;;;13.40;99.90;;;;;;5048896;28;20943;-65
2022/07/16 01:22:47;;;;;;;9.53;7.17;;;13.40;99.90;;;;;;5050050;28;20438;-65
2022/07/16 01:25:15;;;;;;;9.17;7.63;;;13.40;99.90;;;;;;5049296;28;20482;-65
2022/07/16 01:27:43;;;;;;;12.07;7.87;;;13.40;99.90;;;;;;5049766;28;20448;-65
2022/07/16 01:30:11;;;;;;;10.00;7.20;;;13.50;99.90;;;;;;5067728;28;20449;-65
2022/07/16 01:32:38;;;;;;;11.23;8.40;;;13.50;99.90;;;;;;5061373;28;20436;-65
2022/07/16 01:35:06;;;;;;;9.00;7.57;;;13.50;99.90;;;;;;5068920;28;20457;-65
2022/07/16 01:37:33;;;;;;;10.33;7.17;;;13.50;99.90;;;;;;5069475;28;20525;-65
2022/07/16 01:40:00;;;;;;;8.03;7.20;;;13.50;99.90;;;;;;5068652;28;20435;-65
2022/07/16 01:42:29;;;;;;;8.10;6.87;;;13.50;99.90;;;;;;5069283;28;20454;-65
2022/07/16 01:44:55;;;;;;;14.13;7.43;;;13.50;99.90;;;;;;5068992;28;20478;-65
2022/07/16 01:47:22;;;;;;;8.73;7.03;;;13.40;99.90;;;;;;5069495;28;21092;-65
2022/07/16 01:49:49;;;;;;;7.40;6.23;;;13.30;99.90;;;;;;5069153;28;20439;-65
2022/07/16 01:52:19;;;;;;;8.23;7.10;;;13.20;99.90;;;;;;5069460;28;20937;-65
2022/07/16 01:54:48;;;;;;;9.43;7.17;;;13.20;99.90;;;;;;5069145;28;20952;-65
2022/07/16 01:57:15;;;;;;;7.33;6.60;;;13.10;99.90;;;;;;5069406;28;20435;-65
2022/07/16 01:59:45;;;;;;;7.50;6.70;;;13.10;99.90;;;;;;5069255;28;20450;-65
2022/07/16 02:02:12;;;;;;;8.70;7.10;;;13.10;99.90;;;;;;5071797;28;20439;-65
2022/07/16 02:04:41;;;;;;;9.77;7.30;;;13.10;99.90;;;;;;5081042;28;20475;-65
2022/07/16 02:07:08;;;;;;;7.50;6.80;;;13.10;99.90;;;;;;5068969;28;20443;-65
2022/07/16 02:09:35;;;;;;;8.43;6.70;;;13.00;99.90;;;;;;5069301;28;20444;-65
2022/07/16 02:12:03;;;;;;;8.80;6.77;;;12.90;99.90;;;;;;5068147;28;20454;-65
2022/07/16 02:14:29;;;;;;;7.93;7.00;;;12.80;99.90;;;;;;5068814;28;20470;-66
2022/07/16 02:16:58;;;;;;;10.13;7.70;;;12.70;99.90;;;;;;5069312;28;20447;-65
2022/07/16 02:19:24;;;;;;;9.00;7.23;;;12.60;99.90;;;;;;5069446;28;20447;-65
2022/07/16 02:21:51;;;;;;;7.30;6.47;;;12.60;99.90;;;;;;5068550;28;20455;-65
2022/07/16 02:24:18;;;;;;;13.10;6.60;;;12.60;99.90;;;;;;5068630;28;21014;-64
2022/07/16 02:26:45;;;;;;;7.90;6.60;;;12.60;99.90;;;;;;5069165;28;20450;-65
2022/07/16 02:29:12;;;;;;;7.27;6.20;;;12.60;99.90;;;;;;5068963;28;20454;-65
2022/07/16 02:31:39;;;;;;;7.60;6.90;;;12.70;99.90;;;;;;5068478;28;20440;-65
2022/07/16 02:34:07;;;;;;;7.57;6.77;;;12.60;99.90;;;;;;5068923;28;21009;-65
2022/07/16 02:36:34;;;;;;;12.70;8.60;;;12.80;99.90;;;;;;5068740;28;20980;-66
2022/07/16 02:39:01;;;;;;;9.60;7.50;;;12.80;99.90;;;;;;5069003;28;20443;-66
2022/07/16 02:41:27;;;;;;;8.33;7.53;;;12.80;99.90;;;;;;5068387;28;20455;-66
2022/07/16 02:43:54;;;;;;;9.37;8.20;;;12.70;99.90;;;;;;5069022;28;21000;-66
2022/07/16 02:46:21;;;;;;;10.80;8.33;;;12.70;99.90;;;;;;5069174;28;20447;-65
2022/07/16 02:48:48;;;;;;;11.87;9.67;;;12.70;99.90;;;;;;5072370;28;20446;-66
2022/07/16 02:51:16;;;;;;;11.10;9.13;;;12.70;99.90;;;;;;5072097;28;20976;-65
2022/07/16 02:53:43;;;;;;;10.70;9.10;;;12.60;99.90;;;;;;5072587;28;20469;-65
2022/07/16 02:56:10;;;;;;;9.47;8.40;;;12.50;99.90;;;;;;5072051;28;20449;-65
2022/07/16 02:58:37;;;;;;;13.37;8.47;;;12.50;99.90;;;;;;5072704;28;20450;-65
2022/07/16 03:01:04;;;;;;;12.87;8.50;;;12.40;99.90;;;;;;5071509;28;20463;-66
2022/07/16 03:03:31;;;;;;;10.40;9.27;;;12.30;99.90;;;;;;5072264;28;20463;-65
2022/07/16 03:05:57;;;;;;;9.47;8.47;;;12.30;99.90;;;;;;5071679;28;20479;-66
2022/07/16 03:08:26;;;;;;;10.67;9.63;;;12.20;99.90;;;;;;5072194;28;20474;-65
2022/07/16 03:10:53;;;;;;;9.60;8.00;;;12.20;99.90;;;;;;5071454;28;20504;-66
2022/07/16 03:13:19;;;;;;;14.77;8.70;;;12.30;99.90;;;;;;5072257;28;20455;-65
2022/07/16 03:15:46;;;;;;;10.50;8.83;;;12.20;99.90;;;;;;5071695;28;20435;-65
2022/07/16 03:18:13;;;;;;;9.97;8.60;;;12.20;99.90;;;;;;5072229;28;20447;-65
2022/07/16 03:20:40;;;;;;;10.40;7.90;;;12.30;99.90;;;;;;5071142;28;20443;-65
2022/07/16 03:23:06;;;;;;;10.03;8.57;;;12.10;99.90;;;;;;5071846;28;20451;-65
2022/07/16 03:25:35;;;;;;;10.63;8.43;;;12.10;99.90;;;;;;5071630;28;20494;-66
2022/07/16 03:28:01;;;;;;;10.27;7.63;;;12.10;99.90;;;;;;5072118;28;20493;-66
2022/07/16 03:30:28;;;;;;;9.57;8.57;;;12.00;99.90;;;;;;5071049;28;20458;-65
2022/07/16 03:32:57;;;;;;;11.00;9.40;;;12.00;99.90;;;;;;5071827;28;20443;-66
2022/07/16 03:35:24;;;;;;;9.70;8.63;;;12.00;99.90;;;;;;5071289;28;20455;-66
2022/07/16 03:40:38;;;;;;;10.60;9.50;;;12.00;99.90;;;;;;5070991;28;20525;-66
2022/07/16 03:43:05;;;;;;;10.47;9.47;;;12.00;99.90;;;;;;5071640;28;20447;-65
2022/07/16 03:45:32;;;;;;;10.77;9.00;;;12.00;99.90;;;;;;5070994;28;20491;-66
2022/07/16 03:47:59;;;;;;;10.90;8.90;;;11.90;99.90;;;;;;5071319;28;20458;-66
2022/07/16 03:50:26;;;;;;;11.97;9.10;;;11.90;99.90;;;;;;5070648;28;20454;-64
2022/07/16 03:52:53;;;;;;;9.67;8.77;;;11.90;99.90;;;;;;5071461;28;20455;-66
2022/07/16 03:55:20;;;;;;;13.70;10.20;;;11.90;99.90;;;;;;5070994;28;20467;-66
2022/07/16 03:57:48;;;;;;;12.10;9.80;;;12.00;99.90;;;;;;5071260;28;20443;-65
2022/07/16 04:00:15;;;;;;;12.10;10.27;;;12.10;99.90;;;;;;5070461;28;20544;-65
2022/07/16 04:02:42;;;;;;;11.47;9.20;;;12.10;99.90;;;;;;5068721;28;20554;-66
2022/07/16 04:05:09;;;;;;;9.97;8.97;;;12.10;99.90;;;;;;5070531;28;20483;-65
2022/07/16 04:07:37;;;;;;;12.53;8.40;;;12.10;99.90;;;;;;5061620;28;20431;-65
2022/07/16 04:10:04;;;;;;;11.93;9.60;;;12.20;99.90;;;;;;5069869;28;20961;-65
2022/07/16 04:12:31;;;;;;;12.13;9.87;;;12.10;99.90;;;;;;5071015;28;20439;-66
2022/07/16 04:15:01;;;;;;;10.53;9.57;;;12.20;99.90;;;;;;5070409;28;20471;-66
2022/07/16 04:17:27;;;;;;;11.03;9.50;;;12.20;99.90;;;;;;5070871;28;20873;-66
2022/07/16 04:19:54;;;;;;;10.40;9.30;;;12.30;99.90;;;;;;5070064;28;20443;-64
2022/07/16 04:22:21;;;;;;;9.90;9.00;;;12.30;99.90;;;;;;5070423;28;20451;-66
2022/07/16 04:24:48;;;;;;;10.23;9.17;;;12.40;99.90;;;;;;5070110;28;20578;-65
2022/07/16 04:27:15;;;;;;;10.13;8.87;;;12.50;99.90;;;;;;5070658;28;20949;-66
2022/07/16 04:29:41;;;;;;;11.60;8.93;;;12.50;99.90;;;;;;5070316;28;20469;-66
2022/07/16 04:32:10;;;;;;;9.80;7.57;;;12.50;99.90;;;;;;5070023;28;20538;-65
2022/07/16 04:34:37;;;;;;;10.80;8.67;;;12.70;99.90;;;;;;5070133;28;20482;-66
2022/07/16 04:37:03;;;;;;;8.90;8.00;;;12.80;99.90;;;;;;5070444;28;20984;-66
2022/07/16 04:39:30;;;;;;;10.07;9.07;;;12.90;99.90;;;;;;5070604;28;20447;-66
2022/07/16 04:41:57;;;;;;;9.13;7.93;;;12.80;99.90;;;;;;5069500;28;20447;-66
2022/07/16 04:44:24;;;;;;;10.90;8.30;;;12.60;99.90;;;;;;5069780;28;20467;-66
2022/07/16 04:46:50;;;;;;;11.93;9.37;;;12.70;99.90;;;;;;5070368;28;20483;-65
2022/07/16 04:49:19;;;;;;;10.90;8.10;;;12.70;99.90;;;;;;5070201;28;21010;-66
2022/07/16 04:51:45;;;;;;;9.13;8.17;;;12.70;99.90;;;;;;5069461;28;20447;-66
2022/07/16 04:54:12;;;;;;;12.60;8.70;;;12.80;99.90;;;;;;5070120;28;20467;-66
2022/07/16 04:56:39;;;;;;;8.43;7.53;;;12.80;99.90;;;;;;5069875;28;20454;-67
2022/07/16 04:59:06;;;;;;;10.53;8.77;;;12.90;99.90;;;;;;5070325;28;20454;-65
2022/07/16 05:01:33;;;;;;;12.43;8.77;;;12.90;99.90;;;;;;5069395;28;20446;-65
2022/07/16 05:04:00;;;;;;;13.00;8.80;;;13.10;99.90;;;;;;5070211;28;20475;-65
2022/07/16 05:06:28;;;;;;;11.00;8.50;;;13.10;99.90;;;;;;5069748;28;20486;-65
2022/07/16 05:08:56;;;;;;;9.30;7.70;;;13.10;99.90;;;;;;5069861;28;20526;-65
2022/07/16 05:11:23;;;;;;;9.53;8.63;;;13.30;99.90;;;;;;5068704;28;20446;-65
2022/07/16 05:13:52;;;;;;;8.40;7.60;;;13.40;99.90;;;;;;5070022;28;20470;-65
2022/07/16 05:16:19;;;;;;;9.40;8.30;;;13.50;99.90;;;;;;5069595;28;20957;-65
2022/07/16 05:18:46;;;;;;;9.90;8.13;;;13.60;99.90;;;;;;5070175;28;20451;-65
2022/07/16 05:21:13;;;;;;;10.30;8.43;;;13.60;99.90;;;;;;5069256;28;20451;-66
2022/07/16 05:23:41;;;;;;;9.00;8.10;;;13.60;99.90;;;;;;5070051;28;20473;-65
2022/07/16 05:26:08;;;;;;;10.87;8.30;;;13.70;99.90;;;;;;5069600;28;20478;-65
2022/07/16 05:28:35;;;;;;;11.73;8.50;;;13.80;99.90;;;;;;5069804;28;20906;-65
2022/07/16 05:31:02;;;;;;;10.20;8.07;;;13.80;99.90;;;;;;5069355;28;20531;-65
2022/07/16 05:33:29;;;;;;;10.73;8.30;;;14.00;99.90;;;;;;5069902;28;20478;-66
2022/07/16 05:35:56;;;;;;;8.80;7.90;;;14.10;99.90;;;;;;5069249;28;20442;-66
2022/07/16 05:38:22;;;;;;;8.77;7.87;;;14.20;99.90;;;;;;5069633;28;20451;-65
2022/07/16 05:40:51;;;;;;;10.40;9.10;;;14.30;99.90;;;;;;5068863;28;20447;-66
2022/07/16 05:43:17;;;;;;;9.80;8.50;;;14.40;99.90;;;;;;5069554;28;20454;-65
2022/07/16 05:45:44;;;;;;;10.70;8.00;;;14.50;99.90;;;;;;5069251;28;20483;-66
2022/07/16 05:48:11;;;;;;;9.43;8.40;;;14.50;99.90;;;;;;5069626;28;20447;-66
2022/07/16 05:50:38;;;;;;;8.93;8.03;;;14.60;99.90;;;;;;5068650;28;20443;-66
2022/07/16 05:53:04;;;;;;;8.63;7.83;;;14.70;99.90;;;;;;5069432;28;20442;-66
2022/07/16 05:55:31;;;;;;;9.00;8.10;;;14.90;99.90;;;;;;5069107;28;20463;-65
2022/07/16 05:57:59;;;;;;;12.47;8.27;;;15.10;99.90;;;;;;5069817;28;20532;-66
2022/07/16 06:00:26;;;;;;;14.17;8.70;;;15.20;99.90;;;;;;5068574;28;20853;-64
2022/07/16 06:02:53;;;;;;;9.50;8.40;;;15.20;99.90;;;;;;5069508;28;20451;-64
2022/07/16 06:05:20;;;;;;;8.53;7.60;;;15.30;99.90;;;;;;5068674;28;21148;-65
2022/07/16 06:07:47;;;;;;;9.83;7.33;;;15.40;99.90;;;;;;5068947;28;20462;-65
2022/07/16 06:10:13;;;;;;;8.40;7.30;;;15.50;99.90;;;;;;5068468;28;20945;-66
2022/07/16 06:12:40;;;;;;;8.00;6.43;;;15.60;99.90;;;;;;5069272;28;20451;-65
2022/07/16 06:15:11;;;;;;;8.07;7.27;;;15.80;99.90;;;;;;5068842;28;20470;-65
2022/07/16 06:17:37;;;;;;;10.67;7.97;;;15.90;99.90;;;;;;5069303;28;20501;-65
2022/07/16 06:20:06;;;;;;;7.53;6.73;;;16.00;99.90;;;;;;5068369;28;20446;-66
2022/07/16 06:22:33;;;;;;;7.60;6.80;;;16.10;99.90;;;;;;5070281;28;20457;-64
2022/07/16 06:25:00;;;;;;;8.40;6.27;;;16.10;99.90;;;;;;5072878;28;20501;-65
2022/07/16 06:27:27;;;;;;;10.60;6.80;;;16.30;99.90;;;;;;5072867;28;20490;-66
2022/07/16 06:29:54;;;;;;;8.40;7.30;;;16.40;99.90;;;;;;5072239;28;20458;-65
2022/07/16 06:32:22;;;;;;;8.13;6.50;;;16.50;99.90;;;;;;5072579;28;20971;-65
2022/07/16 06:34:49;;;;;;;7.77;5.70;;;16.60;99.90;;;;;;5072215;28;20486;-65
2022/07/16 06:37:15;;;;;;;5.93;4.50;;;16.80;99.90;;;;;;5072785;28;20459;-67
2022/07/16 06:39:42;;;;;;;7.97;6.10;;;16.90;99.90;;;;;;5072752;28;20536;-67
2022/07/16 06:42:09;;;;;;;6.90;6.00;;;17.00;99.90;;;;;;5071982;28;20504;-67
2022/07/16 06:44:36;;;;;;;9.23;6.53;;;17.10;99.90;;;;;;5072199;28;21335;-67
2022/07/16 06:47:03;;;;;;;7.93;6.63;;;17.10;99.90;;;;;;5072675;28;20840;-68
2022/07/16 06:49:31;;;;;;;8.10;6.63;;;17.20;99.90;;;;;;5072349;28;20553;-67
2022/07/16 06:51:58;;;;;;;9.50;6.57;;;17.20;99.90;;;;;;5071765;28;20447;-67
2022/07/16 06:54:24;;;;;;;9.70;6.07;;;17.30;99.90;;;;;;5071988;28;21022;-67
2022/07/16 06:56:51;;;;;;;7.57;6.77;;;17.40;99.90;;;;;;5072616;28;20470;-67
2022/07/16 06:59:18;;;;;;;10.40;6.20;;;17.50;99.90;;;;;;5072383;28;20447;-66
2022/07/16 07:01:45;;;;;;;11.40;6.83;;;17.60;99.90;;;;;;5071516;28;20453;-68
2022/07/16 07:04:12;;;;;;;11.07;6.87;;;17.70;99.90;;;;;;5072575;28;20557;-67
2022/07/16 07:06:40;;;;;;;9.10;5.97;;;17.80;99.90;;;;;;5065657;28;20494;-67
2022/07/16 07:09:06;;;;;;;7.53;5.87;;;17.90;99.90;;;;;;5060211;28;20640;-66
2022/07/16 07:11:34;;;;;;;9.17;6.37;;;18.00;99.90;;;;;;5065890;28;20447;-66
2022/07/16 07:14:00;;;;;;;8.70;5.83;;;18.10;99.90;;;;;;5056856;28;20526;-66
2022/07/16 07:16:27;;;;;;;11.93;5.50;;;18.20;99.90;;;;;;5060228;28;20831;-66
2022/07/16 07:18:54;;;;;;;8.23;5.20;;;18.40;99.90;;;;;;5065792;28;20447;-66
2022/07/16 07:21:21;;;;;;;6.13;4.97;;;18.50;99.90;;;;;;5059686;28;20871;-66
2022/07/16 07:23:49;;;;;;;7.13;5.50;;;18.60;99.90;;;;;;5067321;28;20467;-66
2022/07/16 07:26:16;;;;;;;6.03;4.83;;;18.70;99.90;;;;;;5065476;28;20475;-66
2022/07/16 07:28:43;;;;;;;7.60;5.17;;;18.80;99.90;;;;;;5062364;28;20972;-67
2022/07/16 07:31:09;;;;;;;7.30;4.33;;;18.90;99.90;;;;;;5063334;28;20451;-67
2022/07/16 07:33:37;;;;;;;8.63;4.93;;;19.00;99.90;;;;;;5052037;28;20482;-66
2022/07/16 07:36:05;;;;;;;7.73;4.93;;;19.10;99.90;;;;;;5055363;28;20523;-67
2022/07/16 07:38:32;;;;;;;8.20;4.90;;;19.30;99.90;;;;;;5055519;28;20444;-66
2022/07/16 07:41:01;;;;;;;5.70;4.70;;;19.30;99.90;;;;;;5056378;28;20443;-67
2022/07/16 07:43:28;;;;;;;6.90;5.40;;;19.40;99.90;;;;;;5054215;28;21013;-67
2022/07/16 07:45:55;;;;;;;6.37;4.53;;;19.50;99.90;;;;;;5057636;28;21012;-65
2022/07/16 07:48:22;;;;;;;7.93;3.97;;;19.60;99.90;;;;;;5062929;28;20451;-66
2022/07/16 07:50:48;;;;;;;7.70;4.13;;;19.70;99.90;;;;;;5060373;28;20526;-66
2022/07/16 07:53:15;;;;;;;6.03;4.50;;;19.90;99.20;;;;;;5067095;28;20454;-67
2022/07/16 07:55:42;;;;;;;4.40;3.80;;;20.00;98.60;;;;;;5066364;28;20451;-65
2022/07/16 07:58:10;;;;;;;7.33;4.50;;;20.20;98.40;;;;;;5071567;28;20872;-65
2022/07/16 08:00:37;;;;;;;6.40;4.10;;;20.30;97.90;;;;;;5070710;28;20454;-66
2022/07/16 08:03:04;;;;;;;7.68;4.22;;;20.40;97.60;;;;;;5068459;28;20446;-66
2022/07/16 08:05:31;;;;;;;7.80;3.47;;;20.50;97.20;;;;;;5064813;28;20220;-67
2022/07/16 08:07:58;;;;;;;6.23;3.70;;;20.60;96.30;;;;;;5071449;28;20548;-66
2022/07/16 08:10:25;;;;;;;7.40;3.80;;;20.70;97.00;;;;;;5070396;28;20451;-65
2022/07/16 08:12:52;;;;;;;6.10;3.50;;;20.80;95.80;;;;;;5071074;28;20454;-67
2022/07/16 08:15:20;;;;;;;4.30;3.00;;;20.90;95.10;;;;;;5070516;28;20467;-65
2022/07/16 08:17:46;;;;;;;5.97;3.03;;;21.10;93.40;;;;;;5071057;28;20439;-66
2022/07/16 08:20:14;;;;;;;4.70;3.33;;;21.20;92.30;;;;;;5070264;28;20439;-65
2022/07/16 08:22:42;;;;;;;7.23;3.07;;;21.30;91.90;;;;;;5070840;28;20539;-65
2022/07/16 08:27:54;;;;;;;4.90;2.60;;;21.30;90.70;;;;;;5070795;28;20473;-66
2022/07/16 08:30:22;;;;;;;5.70;2.53;;;21.20;89.20;;;;;;5069898;28;20447;-64
2022/07/16 08:32:49;;;;;;;4.30;2.70;;;21.20;89.20;;;;;;5070801;28;20447;-63
2022/07/16 08:35:16;;;;;;;4.60;2.73;;;21.30;90.40;;;;;;5070311;28;20470;-65
2022/07/16 08:37:45;;;;;;;3.27;2.20;;;21.30;88.20;;;;;;5070466;28;20451;-64
2022/07/16 08:40:15;;;;;;;4.27;2.43;;;21.30;87.50;;;;;;5069812;28;20455;-64
2022/07/16 08:42:42;;;;;;;4.03;2.90;;;21.30;87.50;;;;;;5070261;28;20458;-65
2022/07/16 08:45:11;;;;;;;4.10;2.80;;;21.50;88.70;;;;;;5069298;28;20463;-65
2022/07/16 08:47:40;;;;;;;6.23;2.83;;;21.70;87.10;;;;;;5070161;28;20478;-64
2022/07/16 08:50:09;;;;;;;3.70;2.30;;;21.70;89.70;;;;;;5069437;28;20450;-65
2022/07/16 08:52:39;;;;;;;3.70;2.10;;;21.80;84.80;;;;;;5070408;28;20447;-64
2022/07/16 08:55:08;;;;;;;5.60;3.50;;;21.70;83.70;;;;;;5069989;28;20544;-64
2022/07/16 08:57:36;;;;;;;9.13;3.00;;;21.90;86.60;;;;;;5070361;28;20450;-65
2022/07/16 09:00:05;;;;;;;4.70;2.90;;;22.00;85.60;;;;;;5064545;28;20479;-65
2022/07/16 09:02:32;;;;;;;4.43;2.90;;;22.10;86.50;;;;;;5066452;28;20442;-65
2022/07/16 09:05:00;;;;;;;5.60;2.80;;;22.20;87.90;;;;;;5068305;28;20462;-65
2022/07/16 09:07:27;;;;;;;5.87;3.10;;;22.30;86.30;;;;;;5068745;28;21365;-67
2022/07/16 09:09:54;;;;;;;5.13;2.90;;;22.50;84.90;;;;;;5068427;28;20584;-64
2022/07/16 09:12:34;;;;;;;6.37;3.03;;;22.50;84.90;;;;;;5068939;28;20447;-64
2022/07/16 09:15:00;;;;;;;5.80;2.53;;;22.40;83.00;;;;;;5067847;28;20474;-64
2022/07/16 09:17:27;;;;;;;4.87;2.23;;;22.40;82.80;;;;;;5068810;28;20530;-65
2022/07/16 09:19:54;;;;;;;5.40;2.70;;;22.50;83.00;;;;;;5068910;28;20458;-66
2022/07/16 09:22:25;;;;;;;5.80;2.60;;;22.60;81.50;;;;;;5070173;28;20451;-64
2022/07/16 09:24:53;;;;;;;3.83;1.87;;;22.60;81.70;;;;;;5068901;28;21056;-65
2022/07/16 09:27:25;;;;;;;4.10;2.47;;;22.60;78.30;;;;;;5069559;28;20483;-65
2022/07/16 09:29:54;;;;;;;4.20;2.07;;;22.80;77.60;;;;;;5069117;28;20446;-66
2022/07/16 09:32:28;;;;;;;4.07;2.57;;;22.80;78.80;;;;;;5069535;28;20941;-65
2022/07/16 09:35:02;;;;;;;3.83;1.80;;;22.90;75.40;;;;;;5069358;28;21087;-65
2022/07/16 09:37:45;;;;;;;3.03;2.27;;;22.80;76.90;;;;;;5069690;28;20837;-65
2022/07/16 09:40:12;;;;;;;3.60;2.07;;;23.00;74.90;;;;;;5068985;28;20447;-65
2022/07/16 09:42:40;;;;;;;3.20;2.07;;;23.10;76.70;;;;;;5069877;28;20451;-65
2022/07/16 09:45:07;;;;;;;3.83;2.03;;;23.10;74.90;;;;;;5069384;28;20498;-65
2022/07/16 09:47:35;;;;;;;5.33;2.30;;;23.10;75.30;;;;;;5069650;28;20489;-65
2022/07/16 09:50:02;;;;;;;4.30;2.20;;;23.20;75.40;;;;;;5068814;28;20447;-66
2022/07/16 09:52:33;;;;;;;3.40;1.90;;;23.40;74.60;;;;;;5069531;28;20447;-65
2022/07/16 09:55:00;;;;;;;4.80;2.60;;;23.50;73.70;;;;;;5069049;28;20463;-65
2022/07/16 09:57:28;;;;;;;6.47;2.13;;;23.20;72.90;;;;;;5072654;28;20446;-64
2022/07/16 09:59:56;;;;;;;4.30;2.20;;;23.30;74.70;;;;;;5072821;28;20455;-64
2022/07/16 10:02:23;;;;;;;4.90;2.23;;;24.10;73.10;;;;;;5073536;28;20450;-66
2022/07/16 10:04:51;;;;;;;4.93;2.07;;;24.80;71.30;;;;;;5073120;28;20473;-66
2022/07/16 10:07:18;;;;;;;5.10;2.37;;;25.50;68.40;;;;;;5073212;28;20483;-66
2022/07/16 10:09:46;;;;;;;4.70;2.30;;;26.20;68.10;;;;;;5073276;28;20446;-65
2022/07/16 10:12:15;;;;;;;4.50;2.20;;;27.10;64.90;;;;;;5073365;28;20447;-66
2022/07/16 10:14:44;;;;;;;4.80;1.90;;;27.40;63.10;;;;;;5072982;28;21091;-64
2022/07/16 10:17:15;;;;;;;5.67;2.07;;;27.40;60.80;;;;;;5073326;28;20435;-66
2022/07/16 10:19:43;;;;;;;3.83;2.00;;;27.10;59.60;;;;;;5073129;28;20447;-66
2022/07/16 10:22:17;;;;;;;4.17;1.90;;;26.50;60.10;;;;;;5072969;28;20463;-66
2022/07/16 10:24:48;;;;;;;3.60;1.80;;;26.50;60.20;;;;;;5072942;28;20558;-65
2022/07/16 10:27:25;;;;;;;4.60;2.07;;;26.60;60.00;;;;;;5073250;28;20489;-68
2022/07/16 10:30:16;;;;;;;3.17;1.70;;;26.60;61.90;;;;;;5072583;28;20445;-67
2022/07/16 10:33:10;;;;;;;4.53;2.00;;;26.90;61.60;;;;;;5073085;28;20501;-67
2022/07/16 10:35:38;;;;;;;5.10;2.13;;;27.20;58.60;;;;;;5072901;28;20454;-67
2022/07/16 10:38:07;;;;;;;3.00;2.10;;;28.00;59.20;;;;;;5073347;28;20454;-66
2022/07/16 10:40:37;;;;;;;3.23;1.60;;;28.00;57.30;;;;;;5072567;28;20443;-67
2022/07/16 10:43:15;;;;;;;4.80;2.67;;;27.80;57.90;;;;;;5073862;28;20455;-66
2022/07/16 10:45:55;;;;;;;3.53;1.93;;;27.50;57.70;;;;;;5072893;28;20446;-67
2022/07/16 10:48:26;;;;;;;4.03;2.30;;;27.70;57.40;;;;;;5072885;28;20478;-67
2022/07/16 10:51:14;;;;;;;3.30;1.70;;;27.90;56.60;;;;;;5071973;28;20450;-66
2022/07/16 10:54:22;;;;;;;4.60;1.93;;;27.90;57.30;;;;;;5072931;28;20463;-67
2022/07/16 10:56:52;;;;;;;4.67;1.83;;;29.10;58.60;;;;;;5050006;28;20483;-67
2022/07/16 10:59:21;;;;;;;3.00;1.70;;;29.80;54.10;;;;;;5049876;28;20448;-65
2022/07/16 11:01:51;;;;;;;3.80;1.80;;;29.10;51.50;;;;;;5061262;28;20837;-67
2022/07/16 11:04:27;;;;;;;3.60;1.87;;;28.30;53.20;;;;;;5072123;28;20498;-66
2022/07/16 11:06:54;;;;;;;3.40;1.60;;;27.90;53.60;;;;;;5072506;28;20443;-67
2022/07/16 11:09:25;;;;;;;2.30;1.57;;;27.30;53.20;;;;;;5071636;28;20447;-66
2022/07/16 11:11:55;;;;;;;3.97;2.00;;;27.10;54.00;;;;;;5071475;28;20449;-66
2022/07/16 11:14:29;;;;;;;3.57;1.73;;;27.90;56.00;;;;;;5072054;28;20467;-65
2022/07/16 11:16:57;;;;;;;3.10;1.53;;;28.50;53.30;;;;;;5072100;28;20991;-66
2022/07/16 11:19:23;;;;;;;3.63;1.70;;;29.00;53.60;;;;;;5072045;28;20462;-66
2022/07/16 11:21:55;;;;;;;3.50;1.40;;;29.70;55.00;;;;;;5071339;28;20992;-65
2022/07/16 11:24:23;;;;;;;4.47;1.90;;;29.90;50.60;;;;;;5071414;28;20467;-65
2022/07/16 11:26:51;;;;;;;7.10;2.83;;;29.20;50.80;;;;;;5072108;28;20446;-67
2022/07/16 11:29:20;;;;;;;2.30;1.23;;;28.00;53.10;;;;;;5071926;28;20455;-65
2022/07/16 11:31:48;;;;;;;2.63;1.60;;;27.90;52.40;;;;;;5071245;28;20473;-65
2022/07/16 11:34:18;;;;;;;3.10;1.80;;;28.20;53.40;;;;;;5071477;28;21105;-65
2022/07/16 11:36:48;;;;;;;4.70;1.60;;;28.80;52.60;;;;;;5071573;28;20490;-65
2022/07/16 11:39:17;;;;;;;4.07;1.70;;;28.60;52.30;;;;;;5071866;28;20474;-66
2022/07/16 11:41:50;;;;;;;5.03;1.93;;;28.80;52.60;;;;;;5071104;28;20454;-66
2022/07/16 11:44:20;;;;;;;3.23;1.33;;;29.20;52.10;;;;;;5071173;28;20474;-66
2022/07/16 11:46:49;;;;;;;3.83;1.67;;;29.40;51.00;;;;;;5071429;28;20446;-66
2022/07/16 11:49:27;;;;;;;3.20;1.90;;;29.70;51.70;;;;;;5071327;28;20531;-66
2022/07/16 11:51:55;;;;;;;2.97;1.83;;;29.40;49.30;;;;;;5066393;28;21004;-66
2022/07/16 11:54:22;;;;;;;3.03;1.60;;;29.00;51.20;;;;;;5067121;28;20841;-68
2022/07/16 11:56:50;;;;;;;3.23;1.47;;;29.00;51.90;;;;;;5070179;28;20431;-66
2022/07/16 11:59:24;;;;;;;5.90;1.77;;;28.80;52.30;;;;;;5070160;28;20450;-68
2022/07/16 12:01:59;;;;;;;2.93;1.30;;;28.30;52.20;;;;;;5069123;28;20443;-67
2022/07/16 12:04:35;;;;;;;3.27;1.60;;;28.00;52.80;;;;;;5070015;28;20462;-68
2022/07/16 12:07:02;;;;;;;6.03;1.80;;;27.60;52.70;;;;;;5070398;28;20812;-68
2022/07/16 12:09:32;;;;;;;3.20;1.53;;;27.90;53.70;;;;;;5069807;28;20459;-66
2022/07/16 12:12:01;;;;;;;3.20;1.60;;;28.30;53.30;;;;;;5068784;28;20455;-67
2022/07/16 12:14:48;;;;;;;2.40;1.50;;;28.40;53.50;;;;;;5068495;28;20493;-68
2022/07/16 12:17:21;;;;;;;2.53;1.30;;;28.60;52.40;;;;;;5070190;28;20443;-67
2022/07/16 12:20:03;;;;;;;2.97;1.40;;;29.00;52.00;;;;;;5068141;28;20444;-67
2022/07/16 12:22:51;;;;;;;2.60;1.40;;;29.90;51.80;;;;;;5069656;28;20500;-67
2022/07/16 12:25:35;;;;;;;2.80;1.70;;;30.40;50.90;;;;;;5069070;28;20493;-67
2022/07/16 12:28:05;;;;;;;2.80;1.70;;;30.20;50.80;;;;;;5068887;28;20856;-67
2022/07/16 12:30:37;;;;;;;13.53;12.20;;;29.90;50.50;;;;;;5068820;28;20446;-66
2022/07/16 12:33:05;;;;;;;3.83;1.70;;;29.70;51.30;;;;;;5069397;28;20451;-69
2022/07/16 12:35:45;;;;;;;2.47;1.73;;;30.10;50.70;;;;;;5069119;28;20479;-67
2022/07/16 12:38:39;;;;;;;3.07;1.67;;;31.00;50.60;;;;;;5069118;28;20462;-67
2022/07/16 12:41:08;;;;;;;4.10;1.40;;;32.60;51.30;;;;;;5068777;28;20446;-65
2022/07/16 12:43:35;;;;;;;4.20;1.40;;;32.60;46.80;;;;;;5069012;28;20467;-65
2022/07/16 12:46:04;;;;;;;2.83;1.70;;;31.90;46.90;;;;;;5069179;28;20450;-67
2022/07/16 12:48:32;;;;;;;3.20;1.43;;;31.60;48.30;;;;;;5068815;28;21154;-65
2022/07/16 12:50:59;;;;;;;2.80;1.37;;;31.30;47.40;;;;;;5068617;28;20455;-66
2022/07/16 12:53:26;;;;;;;2.00;1.20;;;30.90;48.40;;;;;;5069053;28;20447;-63
2022/07/16 12:58:49;;;;;;;7.43;3.57;;;30.40;48.70;;;;;;5068988;28;20418;-67
2022/07/16 13:01:18;;;;;;;4.00;1.67;;;29.90;50.40;;;;;;5068181;28;20457;-64
2022/07/16 13:03:45;;;;;;;4.20;3.03;;;30.20;50.40;;;;;;5068628;28;20462;-65